sensor_id;sensor_type;location;lat;lon;timestamp;P1;durP1;ratioP1;P2;durP2;ratioP2
54917;SDS011;40818;50.562;7.454;2022-12-18T00:04:14;16.55;;;3.75;;
54917;SDS011;40818;50.562;7.454;2022-12-18T00:14:22;15.65;;;2.55;;
54917;SDS011;40818;50.562;7.454;2022-12-18T00:24:28;18.30;;;2.80;;
54917;SDS011;40818;50.562;7.454;2022-12-18T00:34:32;18.25;;;3.90;;
54917;SDS011;40818;50.562;7.454;2022-12-18T00:44:38;22.73;;;3.55;;
54917;SDS011;40818;50.562;7.454;2022-12-18T00:54:42;14.98;;;2.53;;
54917;SDS011;40818;50.562;7.454;2022-12-18T01:04:48;20.35;;;3.65;;
54917;SDS011;40818;50.562;7.454;2022-12-18T01:14:53;23.92;;;3.75;;
54917;SDS011;40818;50.562;7.454;2022-12-18T01:24:59;19.63;;;3.17;;
54917;SDS011;40818;50.562;7.454;2022-12-18T01:35:03;8.40;;;2.47;;
54917;SDS011;40818;50.562;7.454;2022-12-18T01:55:32;11.68;;;1.83;;
54917;SDS011;40818;50.562;7.454;2022-12-18T02:05:44;12.35;;;3.67;;
54917;SDS011;40818;50.562;7.454;2022-12-18T02:15:53;12.20;;;3.00;;
54917;SDS011;40818;50.562;7.454;2022-12-18T02:26:11;15.10;;;3.20;;
54917;SDS011;40818;50.562;7.454;2022-12-18T02:36:19;13.88;;;3.47;;
54917;SDS011;40818;50.562;7.454;2022-12-18T02:46:34;14.05;;;2.20;;
54917;SDS011;40818;50.562;7.454;2022-12-18T02:56:46;17.58;;;3.92;;
54917;SDS011;40818;50.562;7.454;2022-12-18T03:06:58;18.00;;;2.47;;
54917;SDS011;40818;50.562;7.454;2022-12-18T03:17:07;15.40;;;3.25;;
54917;SDS011;40818;50.562;7.454;2022-12-18T03:27:21;16.95;;;3.05;;
54917;SDS011;40818;50.562;7.454;2022-12-18T03:37:30;16.83;;;4.65;;
54917;SDS011;40818;50.562;7.454;2022-12-18T03:47:38;17.52;;;3.30;;
54917;SDS011;40818;50.562;7.454;2022-12-18T03:57:48;20.08;;;5.45;;
54917;SDS011;40818;50.562;7.454;2022-12-18T04:07:57;14.18;;;4.10;;
54917;SDS011;40818;50.562;7.454;2022-12-18T04:18:01;21.88;;;4.00;;
54917;SDS011;40818;50.562;7.454;2022-12-18T04:28:15;26.48;;;4.65;;
54917;SDS011;40818;50.562;7.454;2022-12-18T04:38:19;9.20;;;3.25;;
54917;SDS011;40818;50.562;7.454;2022-12-18T04:48:34;22.45;;;4.38;;
54917;SDS011;40818;50.562;7.454;2022-12-18T04:58:38;18.85;;;3.25;;
54917;SDS011;40818;50.562;7.454;2022-12-18T05:08:45;16.45;;;3.15;;
54917;SDS011;40818;50.562;7.454;2022-12-18T05:18:49;18.30;;;4.43;;
54917;SDS011;40818;50.562;7.454;2022-12-18T05:28:55;22.58;;;4.38;;
54917;SDS011;40818;50.562;7.454;2022-12-18T05:38:58;15.20;;;2.97;;
54917;SDS011;40818;50.562;7.454;2022-12-18T05:49:04;23.25;;;4.32;;
54917;SDS011;40818;50.562;7.454;2022-12-18T05:59:08;14.35;;;4.00;;
54917;SDS011;40818;50.562;7.454;2022-12-18T06:09:14;17.95;;;3.28;;
54917;SDS011;40818;50.562;7.454;2022-12-18T06:19:18;15.18;;;3.80;;
54917;SDS011;40818;50.562;7.454;2022-12-18T06:29:24;13.05;;;2.90;;
54917;SDS011;40818;50.562;7.454;2022-12-18T06:39:27;16.65;;;4.68;;
54917;SDS011;40818;50.562;7.454;2022-12-18T06:49:34;17.98;;;4.05;;
54917;SDS011;40818;50.562;7.454;2022-12-18T06:59:37;17.85;;;4.93;;
54917;SDS011;40818;50.562;7.454;2022-12-18T07:09:43;17.35;;;4.45;;
54917;SDS011;40818;50.562;7.454;2022-12-18T07:19:47;20.45;;;4.97;;
54917;SDS011;40818;50.562;7.454;2022-12-18T07:29:53;11.38;;;3.33;;
54917;SDS011;40818;50.562;7.454;2022-12-18T07:39:57;15.13;;;3.58;;
54917;SDS011;40818;50.562;7.454;2022-12-18T07:50:04;19.10;;;4.13;;
54917;SDS011;40818;50.562;7.454;2022-12-18T08:00:08;15.00;;;3.85;;
54917;SDS011;40818;50.562;7.454;2022-12-18T08:10:16;28.33;;;5.60;;
54917;SDS011;40818;50.562;7.454;2022-12-18T08:20:19;19.40;;;4.78;;
54917;SDS011;40818;50.562;7.454;2022-12-18T08:30:26;23.88;;;6.85;;
54917;SDS011;40818;50.562;7.454;2022-12-18T08:40:29;18.70;;;5.20;;
54917;SDS011;40818;50.562;7.454;2022-12-18T08:50:35;16.23;;;2.92;;
54917;SDS011;40818;50.562;7.454;2022-12-18T09:00:39;20.35;;;6.05;;
54917;SDS011;40818;50.562;7.454;2022-12-18T09:10:45;13.55;;;3.88;;
54917;SDS011;40818;50.562;7.454;2022-12-18T09:20:50;16.42;;;5.55;;
54917;SDS011;40818;50.562;7.454;2022-12-18T09:30:56;17.02;;;4.75;;
54917;SDS011;40818;50.562;7.454;2022-12-18T09:41:03;18.38;;;5.32;;
54917;SDS011;40818;50.562;7.454;2022-12-18T09:51:14;22.25;;;5.50;;
54917;SDS011;40818;50.562;7.454;2022-12-18T10:01:22;18.58;;;5.43;;
54917;SDS011;40818;50.562;7.454;2022-12-18T10:11:37;20.42;;;4.80;;
54917;SDS011;40818;50.562;7.454;2022-12-18T10:21:48;18.40;;;6.22;;
54917;SDS011;40818;50.562;7.454;2022-12-18T10:32:00;23.50;;;6.18;;
54917;SDS011;40818;50.562;7.454;2022-12-18T10:42:09;16.63;;;5.00;;
54917;SDS011;40818;50.562;7.454;2022-12-18T10:52:17;18.35;;;5.20;;
54917;SDS011;40818;50.562;7.454;2022-12-18T11:02:26;18.40;;;6.18;;
54917;SDS011;40818;50.562;7.454;2022-12-18T11:12:35;17.90;;;4.18;;
54917;SDS011;40818;50.562;7.454;2022-12-18T11:22:39;15.73;;;4.13;;
54917;SDS011;40818;50.562;7.454;2022-12-18T11:32:45;16.40;;;5.75;;
54917;SDS011;40818;50.562;7.454;2022-12-18T11:42:53;22.75;;;7.85;;
54917;SDS011;40818;50.562;7.454;2022-12-18T11:53:03;20.58;;;6.40;;
54917;SDS011;40818;50.562;7.454;2022-12-18T12:03:12;20.13;;;5.20;;
54917;SDS011;40818;50.562;7.454;2022-12-18T12:13:43;25.42;;;6.55;;
54917;SDS011;40818;50.562;7.454;2022-12-18T12:23:58;25.03;;;8.40;;
54917;SDS011;40818;50.562;7.454;2022-12-18T12:34:16;26.63;;;9.43;;
54917;SDS011;40818;50.562;7.454;2022-12-18T12:44:24;29.45;;;9.00;;
54917;SDS011;40818;50.562;7.454;2022-12-18T12:54:34;34.78;;;8.90;;
54917;SDS011;40818;50.562;7.454;2022-12-18T13:04:39;35.05;;;11.23;;
54917;SDS011;40818;50.562;7.454;2022-12-18T13:14:50;32.72;;;9.63;;
54917;SDS011;40818;50.562;7.454;2022-12-18T13:24:54;34.10;;;10.95;;
54917;SDS011;40818;50.562;7.454;2022-12-18T13:45:38;27.60;;;8.02;;
54917;SDS011;40818;50.562;7.454;2022-12-18T13:55:45;26.92;;;8.98;;
54917;SDS011;40818;50.562;7.454;2022-12-18T14:05:55;27.27;;;8.05;;
54917;SDS011;40818;50.562;7.454;2022-12-18T14:16:03;35.35;;;10.35;;
54917;SDS011;40818;50.562;7.454;2022-12-18T14:26:22;35.40;;;11.43;;
54917;SDS011;40818;50.562;7.454;2022-12-18T14:36:29;36.30;;;10.90;;
54917;SDS011;40818;50.562;7.454;2022-12-18T14:46:35;29.05;;;10.52;;
54917;SDS011;40818;50.562;7.454;2022-12-18T14:56:42;30.00;;;10.40;;
54917;SDS011;40818;50.562;7.454;2022-12-18T15:06:51;41.20;;;12.98;;
54917;SDS011;40818;50.562;7.454;2022-12-18T15:17:13;39.97;;;11.48;;
54917;SDS011;40818;50.562;7.454;2022-12-18T15:27:23;30.08;;;10.35;;
54917;SDS011;40818;50.562;7.454;2022-12-18T15:37:30;39.95;;;12.65;;
54917;SDS011;40818;50.562;7.454;2022-12-18T15:47:36;45.67;;;13.63;;
54917;SDS011;40818;50.562;7.454;2022-12-18T15:57:39;42.63;;;13.65;;
54917;SDS011;40818;50.562;7.454;2022-12-18T16:07:45;36.47;;;12.73;;
54917;SDS011;40818;50.562;7.454;2022-12-18T16:17:49;39.58;;;13.48;;
54917;SDS011;40818;50.562;7.454;2022-12-18T16:27:55;43.72;;;14.27;;
54917;SDS011;40818;50.562;7.454;2022-12-18T16:37:59;51.53;;;13.82;;
54917;SDS011;40818;50.562;7.454;2022-12-18T16:48:05;34.25;;;11.10;;
54917;SDS011;40818;50.562;7.454;2022-12-18T16:58:09;49.35;;;13.02;;
54917;SDS011;40818;50.562;7.454;2022-12-18T17:08:16;39.92;;;12.60;;
54917;SDS011;40818;50.562;7.454;2022-12-18T17:18:19;40.40;;;13.35;;
54917;SDS011;40818;50.562;7.454;2022-12-18T17:28:26;39.42;;;12.80;;
54917;SDS011;40818;50.562;7.454;2022-12-18T17:38:30;38.20;;;12.05;;
54917;SDS011;40818;50.562;7.454;2022-12-18T17:48:36;41.60;;;14.45;;
54917;SDS011;40818;50.562;7.454;2022-12-18T17:58:40;28.75;;;8.80;;
54917;SDS011;40818;50.562;7.454;2022-12-18T18:08:47;53.10;;;12.73;;
54917;SDS011;40818;50.562;7.454;2022-12-18T18:18:51;46.65;;;12.23;;
54917;SDS011;40818;50.562;7.454;2022-12-18T18:28:57;40.80;;;10.13;;
54917;SDS011;40818;50.562;7.454;2022-12-18T18:39:01;40.88;;;11.15;;
54917;SDS011;40818;50.562;7.454;2022-12-18T18:49:08;37.72;;;11.10;;
54917;SDS011;40818;50.562;7.454;2022-12-18T18:59:13;39.80;;;11.15;;
54917;SDS011;40818;50.562;7.454;2022-12-18T19:09:19;48.03;;;15.52;;
54917;SDS011;40818;50.562;7.454;2022-12-18T19:19:22;41.42;;;12.95;;
54917;SDS011;40818;50.562;7.454;2022-12-18T19:29:28;35.83;;;9.90;;
54917;SDS011;40818;50.562;7.454;2022-12-18T19:39:32;36.80;;;11.43;;
54917;SDS011;40818;50.562;7.454;2022-12-18T19:49:38;44.15;;;11.50;;
54917;SDS011;40818;50.562;7.454;2022-12-18T19:59:42;51.92;;;15.45;;
54917;SDS011;40818;50.562;7.454;2022-12-18T20:09:48;41.70;;;14.32;;
54917;SDS011;40818;50.562;7.454;2022-12-18T20:19:51;47.95;;;14.15;;
54917;SDS011;40818;50.562;7.454;2022-12-18T20:29:57;38.17;;;12.00;;
54917;SDS011;40818;50.562;7.454;2022-12-18T20:40:01;46.63;;;13.95;;
54917;SDS011;40818;50.562;7.454;2022-12-18T20:50:07;54.05;;;14.65;;
54917;SDS011;40818;50.562;7.454;2022-12-18T21:00:12;45.90;;;12.70;;
54917;SDS011;40818;50.562;7.454;2022-12-18T21:10:19;50.00;;;14.73;;
54917;SDS011;40818;50.562;7.454;2022-12-18T21:20:22;47.63;;;15.70;;
54917;SDS011;40818;50.562;7.454;2022-12-18T21:30:28;41.90;;;12.57;;
54917;SDS011;40818;50.562;7.454;2022-12-18T21:40:32;45.70;;;11.80;;
54917;SDS011;40818;50.562;7.454;2022-12-18T21:50:38;49.67;;;16.55;;
54917;SDS011;40818;50.562;7.454;2022-12-18T22:00:41;47.70;;;14.57;;
54917;SDS011;40818;50.562;7.454;2022-12-18T22:10:47;48.22;;;15.95;;
54917;SDS011;40818;50.562;7.454;2022-12-18T22:20:59;42.35;;;13.95;;
54917;SDS011;40818;50.562;7.454;2022-12-18T22:31:05;54.30;;;17.02;;
54917;SDS011;40818;50.562;7.454;2022-12-18T22:41:09;45.72;;;13.27;;
54917;SDS011;40818;50.562;7.454;2022-12-18T22:51:16;66.47;;;17.25;;
54917;SDS011;40818;50.562;7.454;2022-12-18T23:01:22;53.22;;;15.45;;
54917;SDS011;40818;50.562;7.454;2022-12-18T23:11:29;42.70;;;14.30;;
54917;SDS011;40818;50.562;7.454;2022-12-18T23:21:33;45.70;;;15.90;;
54917;SDS011;40818;50.562;7.454;2022-12-18T23:31:39;50.55;;;14.00;;
54917;SDS011;40818;50.562;7.454;2022-12-18T23:41:43;41.30;;;14.00;;
54917;SDS011;40818;50.562;7.454;2022-12-18T23:51:49;35.13;;;11.98;;
